createdAt,value
2019-05-21T00:01:44.440Z,18.00
2019-05-21T00:04:28.028Z,18.40
2019-05-21T00:06:51.448Z,17.40
2019-05-21T00:09:25.895Z,18.97
2019-05-21T00:11:58.142Z,18.30
2019-05-21T00:14:30.630Z,18.70
2019-05-21T00:17:03.948Z,19.37
2019-05-21T00:19:35.754Z,18.33
2019-05-21T00:22:07.928Z,17.77
2019-05-21T00:24:43.363Z,19.10
2019-05-21T00:27:15.844Z,17.43
2019-05-21T00:30:23.378Z,18.70
2019-05-21T00:33:31.537Z,19.40
2019-05-21T00:36:39.002Z,21.53
2019-05-21T00:39:46.545Z,21.83
2019-05-21T00:42:31.466Z,21.47
2019-05-21T00:45:09.170Z,22.70
2019-05-21T00:47:41.603Z,21.83
2019-05-21T00:50:14.052Z,22.50
2019-05-21T00:52:45.977Z,23.13
2019-05-21T00:55:18.215Z,23.37
2019-05-21T00:57:51.026Z,23.00
2019-05-21T01:00:24.164Z,22.07
2019-05-21T01:02:56.041Z,24.23
2019-05-21T01:05:27.643Z,23.33
2019-05-21T01:07:59.154Z,22.90
2019-05-21T01:10:30.764Z,24.30
2019-05-21T01:13:03.390Z,22.73
2019-05-21T01:15:35.051Z,23.13
2019-05-21T01:18:07.062Z,22.07
2019-05-21T01:20:40.772Z,21.27
2019-05-21T01:23:13.895Z,21.33
2019-05-21T01:25:45.764Z,19.53
2019-05-21T01:28:18.064Z,18.17
2019-05-21T01:30:51.165Z,19.17
2019-05-21T01:33:24.660Z,18.33
2019-05-21T01:35:57.667Z,18.43
2019-05-21T01:38:29.465Z,17.27
2019-05-21T01:41:03.335Z,18.77
2019-05-21T01:43:35.967Z,18.07
2019-05-21T01:46:08.578Z,19.23
2019-05-21T01:48:42.093Z,18.77
2019-05-21T01:51:14.340Z,19.17
2019-05-21T01:53:46.705Z,20.20
2019-05-21T01:56:18.370Z,20.10
2019-05-21T01:58:52.066Z,21.60
2019-05-21T02:01:24.119Z,21.03
2019-05-21T02:03:56.387Z,19.57
2019-05-21T02:06:28.835Z,19.13
2019-05-21T02:09:02.339Z,18.70
2019-05-21T02:11:35.913Z,17.13
2019-05-21T02:14:07.691Z,17.97
2019-05-21T02:16:42.126Z,16.87
2019-05-21T02:19:14.701Z,17.43
2019-05-21T02:21:47.029Z,17.40
2019-05-21T02:24:20.021Z,17.10
2019-05-21T02:26:52.071Z,16.43
2019-05-21T02:29:24.346Z,17.00
2019-05-21T02:31:56.836Z,16.83
2019-05-21T02:34:28.774Z,16.37
2019-05-21T02:37:06.346Z,17.23
2019-05-21T02:39:38.566Z,17.03
2019-05-21T02:42:10.737Z,18.83
2019-05-21T02:44:43.123Z,19.47
2019-05-21T02:47:15.574Z,19.37
2019-05-21T02:49:47.515Z,20.53
2019-05-21T02:52:19.461Z,19.87
2019-05-21T02:54:56.710Z,20.80
2019-05-21T02:57:39.129Z,19.30
2019-05-21T03:00:26.037Z,19.10
2019-05-21T03:02:58.205Z,19.00
2019-05-21T03:05:40.948Z,18.37
2019-05-21T03:08:13.977Z,19.57
2019-05-21T03:10:46.408Z,21.00
2019-05-21T03:13:18.913Z,21.23
2019-05-21T03:15:51.454Z,22.23
2019-05-21T03:18:23.688Z,23.00
2019-05-21T03:20:57.776Z,22.07
2019-05-21T03:23:30.493Z,19.97
2019-05-21T03:26:02.219Z,20.83
2019-05-21T03:28:35.150Z,18.80
2019-05-21T03:31:08.647Z,18.40
2019-05-21T03:33:41.178Z,17.13
2019-05-21T03:36:29.705Z,17.80
2019-05-21T03:38:48.016Z,19.20
2019-05-21T03:41:20.734Z,18.67
2019-05-21T03:43:52.789Z,18.80
2019-05-21T03:46:25.445Z,19.43
2019-05-21T03:48:58.260Z,20.60
2019-05-21T03:51:30.565Z,21.87
2019-05-21T03:54:03.015Z,21.70
2019-05-21T03:56:35.655Z,23.40
2019-05-21T03:59:08.563Z,23.30
2019-05-21T04:01:42.347Z,23.70
2019-05-21T04:04:14.546Z,23.80
2019-05-21T04:06:51.767Z,22.70
2019-05-21T04:09:24.407Z,23.10
2019-05-21T04:11:56.527Z,22.07
2019-05-21T04:14:34.999Z,21.40
2019-05-21T04:17:22.791Z,20.67
2019-05-21T04:19:55.180Z,20.53
2019-05-21T04:22:27.883Z,20.73
2019-05-21T04:24:59.729Z,20.47
2019-05-21T04:27:31.335Z,20.63
2019-05-21T04:30:06.415Z,19.57
2019-05-21T04:32:40.027Z,19.57
2019-05-21T04:35:12.030Z,19.00
2019-05-21T04:37:45.048Z,19.30
2019-05-21T04:40:17.040Z,19.70
2019-05-21T04:42:49.155Z,18.87
2019-05-21T04:45:20.893Z,17.67
2019-05-21T04:47:56.371Z,18.73
2019-05-21T04:50:28.266Z,18.17
2019-05-21T04:53:00.252Z,17.23
2019-05-21T04:55:32.382Z,16.30
2019-05-21T04:58:04.847Z,14.23
2019-05-21T05:00:37.025Z,13.93
2019-05-21T05:03:09.920Z,13.37
2019-05-21T05:05:42.355Z,12.07
2019-05-21T05:08:14.403Z,13.17
2019-05-21T05:10:49.330Z,13.53
2019-05-21T05:13:20.973Z,13.07
2019-05-21T05:15:53.332Z,13.13
2019-05-21T05:18:25.458Z,12.60
2019-05-21T05:20:58.475Z,12.10
2019-05-21T05:23:30.969Z,11.47
2019-05-21T05:26:05.756Z,11.77
2019-05-21T05:31:48.946Z,12.90
2019-05-21T05:34:20.888Z,13.13
2019-05-21T05:36:54.518Z,12.87
2019-05-21T05:39:31.904Z,12.50
2019-05-21T05:42:04.079Z,11.80
2019-05-21T05:44:36.383Z,12.43
2019-05-21T05:47:08.288Z,12.43
2019-05-21T05:49:44.240Z,13.17
2019-05-21T05:52:17.362Z,12.53
2019-05-21T05:54:50.204Z,12.37
2019-05-21T05:57:22.532Z,12.20
2019-05-21T05:59:54.439Z,12.30
2019-05-21T06:02:26.565Z,12.13
2019-05-21T06:04:58.668Z,12.90
2019-05-21T06:07:30.794Z,12.07
2019-05-21T06:10:02.991Z,12.23
2019-05-21T06:12:36.096Z,12.00
2019-05-21T06:15:08.830Z,12.67
2019-05-21T06:17:41.514Z,13.77
2019-05-21T06:20:14.784Z,14.17
2019-05-21T06:22:47.654Z,12.73
2019-05-21T06:25:20.213Z,14.47
2019-05-21T06:27:52.000Z,14.90
2019-05-21T06:30:25.788Z,14.67
2019-05-21T06:32:58.925Z,14.60
2019-05-21T06:35:30.875Z,16.57
2019-05-21T06:38:16.575Z,16.03
2019-05-21T06:40:38.635Z,15.43
2019-05-21T06:43:12.254Z,15.20
2019-05-21T06:45:44.679Z,14.77
2019-05-21T06:48:16.538Z,14.60
2019-05-21T06:50:49.534Z,14.03
2019-05-21T06:53:21.739Z,14.10
2019-05-21T06:55:54.474Z,13.63
2019-05-21T06:58:26.722Z,13.93
2019-05-21T07:00:59.664Z,14.63
2019-05-21T07:03:32.849Z,14.83
2019-05-21T07:06:05.600Z,14.37
2019-05-21T07:08:39.588Z,14.80
2019-05-21T07:11:12.407Z,15.53
2019-05-21T07:13:47.719Z,15.83
2019-05-21T07:16:20.171Z,14.60
2019-05-21T07:18:53.662Z,15.33
2019-05-21T07:21:25.637Z,16.57
2019-05-21T07:23:59.206Z,16.53
2019-05-21T07:26:33.914Z,16.93
2019-05-21T07:29:06.163Z,16.47
2019-05-21T07:31:39.265Z,16.20
2019-05-21T07:34:12.644Z,14.30
2019-05-21T07:36:45.623Z,15.57
2019-05-21T07:39:18.320Z,16.13
2019-05-21T07:41:50.654Z,14.67
2019-05-21T07:44:24.067Z,15.20
2019-05-21T07:47:08.150Z,14.13
2019-05-21T07:49:42.709Z,13.83
2019-05-21T07:52:15.234Z,14.17
2019-05-21T07:54:48.661Z,12.97
2019-05-21T07:57:20.958Z,12.67
2019-05-21T07:59:55.334Z,12.83
2019-05-21T08:02:28.501Z,12.13
2019-05-21T08:05:00.862Z,11.37
2019-05-21T08:07:33.430Z,11.17
2019-05-21T08:10:06.490Z,10.70
2019-05-21T08:12:40.011Z,9.90
2019-05-21T08:15:12.612Z,10.17
2019-05-21T08:17:45.086Z,9.67
2019-05-21T08:20:19.036Z,9.33
2019-05-21T08:22:51.159Z,9.87
2019-05-21T08:25:38.137Z,9.90
2019-05-21T08:28:10.448Z,9.43
2019-05-21T08:30:43.126Z,9.70
2019-05-21T08:33:15.100Z,9.40
2019-05-21T08:35:48.568Z,8.53
2019-05-21T08:38:21.462Z,8.87
2019-05-21T10:02:58.537Z,6.10
2019-05-21T10:05:30.310Z,6.20
2019-05-21T10:08:02.911Z,6.40
2019-05-21T10:10:35.364Z,6.50
2019-05-21T10:13:07.264Z,5.27
2019-05-21T10:15:40.030Z,5.90
2019-05-21T10:18:12.070Z,6.20
2019-05-21T10:20:46.301Z,6.50
2019-05-21T10:23:20.937Z,6.83
2019-05-21T10:25:53.725Z,7.23
2019-05-21T10:28:25.681Z,7.80
2019-05-21T10:30:57.729Z,8.17
2019-05-21T10:33:29.960Z,8.37
2019-05-21T10:36:01.900Z,7.87
2019-05-21T10:38:33.864Z,8.13
2019-05-21T10:41:07.554Z,7.20
2019-05-21T10:43:40.999Z,7.40
2019-05-21T10:46:31.758Z,7.57
2019-05-21T10:49:04.027Z,7.30
2019-05-21T10:51:37.347Z,7.53
2019-05-21T10:54:09.522Z,7.30
2019-05-21T10:56:47.817Z,8.33
2019-05-21T10:59:15.851Z,8.27
2019-05-21T11:02:16.119Z,9.23
2019-05-21T11:05:07.141Z,9.03
2019-05-21T11:07:39.154Z,8.97
2019-05-21T11:10:13.236Z,8.87
2019-05-21T11:12:45.207Z,9.37
2019-05-21T11:15:18.411Z,8.97
2019-05-21T11:18:09.094Z,8.47
2019-05-21T11:20:24.587Z,8.93
2019-05-21T11:22:58.428Z,9.70
2019-05-21T11:25:31.795Z,9.30
2019-05-21T11:28:06.206Z,8.93
2019-05-21T11:30:38.076Z,9.27
2019-05-21T11:33:10.275Z,9.17
2019-05-21T11:35:42.069Z,8.33
2019-05-21T11:38:13.992Z,7.70
2019-05-21T11:40:50.862Z,7.30
2019-05-21T11:43:22.869Z,7.97
2019-05-21T11:45:54.771Z,8.67
2019-05-21T11:48:27.194Z,8.73
2019-05-21T11:50:59.125Z,8.40
2019-05-21T11:53:32.004Z,8.07
2019-05-21T11:56:04.333Z,8.30
2019-05-21T11:58:42.261Z,7.90
2019-05-21T12:01:14.734Z,8.77
2019-05-21T12:03:48.340Z,8.90
2019-05-21T12:06:21.022Z,9.00
2019-05-21T12:08:56.643Z,8.20
2019-05-21T12:11:26.659Z,8.93
2019-05-21T12:13:58.680Z,9.80
2019-05-21T12:16:33.879Z,9.27
2019-05-21T12:19:08.132Z,9.87
2019-05-21T12:21:41.354Z,9.70
2019-05-21T12:24:13.558Z,9.67
2019-05-21T12:26:45.546Z,9.83
2019-05-21T12:29:18.113Z,10.40
2019-05-21T12:31:51.306Z,9.97
2019-05-21T12:34:24.151Z,8.43
2019-05-21T12:36:56.115Z,8.90
2019-05-21T12:39:29.005Z,9.83
2019-05-21T12:42:01.026Z,10.97
2019-05-21T12:44:46.342Z,9.73
2019-05-21T12:47:18.447Z,8.80
2019-05-21T12:49:50.243Z,8.90
2019-05-21T12:52:23.185Z,9.07
2019-05-21T12:54:55.742Z,9.03
2019-05-21T12:57:27.731Z,9.27
2019-05-21T12:59:59.612Z,10.73
2019-05-21T13:02:31.869Z,10.77
2019-05-21T13:05:03.854Z,10.00
2019-05-21T13:07:35.633Z,11.60
2019-05-21T13:10:08.725Z,9.90
2019-05-21T13:12:40.638Z,10.50
2019-05-21T13:15:13.178Z,10.40
2019-05-21T13:17:45.435Z,10.10
2019-05-21T13:20:25.575Z,9.43
2019-05-21T13:22:57.811Z,9.30
2019-05-21T13:25:29.719Z,9.77
2019-05-21T13:28:02.708Z,10.20
2019-05-21T13:33:19.712Z,10.60
2019-05-21T13:35:52.255Z,9.80
2019-05-21T13:38:24.496Z,9.30
2019-05-21T13:40:57.753Z,9.10
2019-05-21T13:43:29.668Z,9.10
2019-05-21T13:46:02.016Z,9.00
2019-05-21T13:48:34.997Z,9.33
2019-05-21T13:51:07.252Z,10.07
2019-05-21T13:53:39.453Z,10.40
2019-05-21T13:56:11.787Z,11.40
2019-05-21T13:58:43.972Z,12.20
2019-05-21T14:01:17.480Z,11.50
2019-05-21T14:03:49.270Z,10.47
2019-05-21T14:06:21.727Z,11.10
2019-05-21T14:08:53.485Z,10.30
2019-05-21T14:11:26.069Z,9.07
2019-05-21T14:13:57.881Z,8.90
2019-05-21T14:16:29.796Z,11.10
2019-05-21T14:19:02.425Z,10.33
2019-05-21T14:21:35.832Z,10.30
2019-05-21T14:24:09.438Z,10.43
2019-05-21T14:26:42.479Z,11.35
2019-05-21T14:29:14.308Z,10.87
2019-05-21T14:31:46.518Z,11.43
2019-05-21T14:34:19.144Z,11.07
2019-05-21T14:36:51.095Z,10.83
2019-05-21T14:39:23.686Z,9.93
2019-05-21T14:41:55.657Z,10.57
2019-05-21T14:44:31.084Z,11.47
2019-05-21T14:47:03.865Z,13.23
2019-05-21T14:49:37.425Z,12.40
2019-05-21T14:52:10.788Z,13.70
2019-05-21T14:54:43.076Z,13.97
2019-05-21T14:57:15.079Z,13.57
2019-05-21T14:59:47.192Z,13.73
2019-05-21T15:02:19.050Z,15.67
2019-05-21T15:04:51.775Z,14.77
2019-05-21T15:10:47.394Z,15.30
2019-05-21T15:13:08.590Z,17.23
2019-05-21T15:15:41.208Z,18.00
2019-05-21T15:18:19.804Z,17.57
2019-05-21T15:21:15.332Z,17.77
2019-05-21T15:23:47.819Z,18.87
2019-05-21T15:26:23.024Z,19.20
2019-05-21T15:28:54.965Z,19.00
2019-05-21T15:31:27.785Z,20.63
2019-05-21T15:34:00.161Z,20.53
2019-05-21T15:36:32.396Z,22.00
2019-05-21T15:39:06.465Z,21.00
2019-05-21T15:41:38.876Z,20.73
2019-05-21T15:44:11.092Z,20.40
2019-05-21T15:46:49.602Z,20.17
2019-05-21T15:52:28.118Z,20.93
2019-05-21T15:55:07.411Z,20.87
2019-05-21T15:57:39.677Z,20.60
2019-05-21T16:00:12.878Z,20.33
2019-05-21T16:02:45.892Z,21.43
2019-05-21T16:05:18.225Z,20.77
2019-05-21T16:07:50.289Z,20.37
2019-05-21T16:10:22.754Z,20.17
2019-05-21T16:12:58.070Z,19.97
2019-05-21T16:15:30.463Z,18.90
2019-05-21T16:18:02.558Z,18.43
2019-05-21T16:20:36.154Z,18.93
2019-05-21T16:23:08.646Z,20.13
2019-05-21T16:25:41.012Z,19.30
2019-05-21T16:28:12.969Z,16.77
2019-05-21T16:30:44.768Z,18.33
2019-05-21T16:33:20.118Z,19.10
2019-05-21T16:35:52.144Z,18.67
2019-05-21T16:38:24.171Z,18.93
2019-05-21T16:40:56.342Z,18.90
2019-05-21T16:46:42.472Z,18.17
2019-05-21T16:49:14.482Z,17.60
2019-05-21T16:54:57.538Z,18.13
2019-05-21T16:57:29.509Z,17.43
2019-05-21T17:00:03.140Z,19.17
2019-05-21T17:02:35.533Z,20.43
2019-05-21T17:05:08.954Z,20.43
2019-05-21T17:07:41.034Z,19.67
2019-05-21T17:10:15.634Z,19.63
2019-05-21T17:12:47.419Z,21.17
2019-05-21T17:15:20.340Z,20.30
2019-05-21T17:17:52.295Z,20.00
2019-05-21T17:20:25.079Z,20.07
2019-05-21T17:22:56.887Z,19.97
2019-05-21T17:25:29.668Z,20.57
2019-05-21T17:28:01.598Z,20.60
2019-05-21T17:30:34.435Z,21.93
2019-05-21T17:33:06.656Z,22.73
2019-05-21T17:35:39.185Z,23.67
2019-05-21T17:38:12.787Z,23.37
2019-05-21T17:40:45.462Z,23.30
2019-05-21T17:43:18.853Z,24.67
2019-05-21T17:45:50.987Z,24.33
2019-05-21T17:48:23.175Z,24.67
2019-05-21T17:50:56.821Z,25.53
2019-05-21T17:53:28.845Z,23.97
2019-05-21T17:56:00.955Z,24.90
2019-05-21T17:58:33.387Z,23.80
2019-05-21T18:01:09.177Z,22.87
2019-05-21T18:03:42.523Z,23.07
2019-05-21T18:06:15.016Z,23.20
2019-05-21T18:08:48.006Z,23.50
2019-05-21T18:11:21.678Z,23.67
2019-05-21T18:13:53.959Z,23.70
2019-05-21T18:16:27.992Z,23.90
2019-05-21T18:19:00.922Z,23.77
2019-05-21T18:21:35.812Z,23.63
2019-05-21T18:24:08.434Z,23.63
2019-05-21T18:26:40.962Z,22.67
2019-05-21T18:29:14.026Z,23.37
2019-05-21T18:31:47.005Z,24.27
2019-05-21T18:34:20.810Z,23.57
2019-05-21T18:36:53.135Z,23.90
2019-05-21T18:39:26.877Z,22.50
2019-05-21T18:42:01.070Z,23.03
2019-05-21T18:44:34.324Z,22.47
2019-05-21T18:47:06.385Z,22.70
2019-05-21T18:49:38.157Z,22.53
2019-05-21T18:52:11.254Z,22.73
2019-05-21T18:54:47.485Z,21.77
2019-05-21T18:57:17.555Z,22.40
2019-05-21T18:59:49.834Z,20.77
2019-05-21T19:02:25.194Z,21.07
2019-05-21T19:04:57.141Z,22.20
2019-05-21T19:07:29.227Z,21.73
2019-05-21T19:10:01.685Z,22.43
2019-05-21T19:12:38.059Z,21.53
2019-05-21T19:15:08.273Z,20.70
2019-05-21T19:17:41.169Z,21.67
2019-05-21T19:20:14.356Z,20.87
2019-05-21T19:22:47.199Z,21.20
2019-05-21T19:25:20.499Z,20.90
2019-05-21T19:27:52.865Z,21.60
2019-05-21T19:30:25.421Z,21.00
2019-05-21T19:32:58.391Z,21.03
2019-05-21T19:35:33.060Z,21.90
2019-05-21T19:38:03.966Z,22.00
2019-05-21T19:40:35.985Z,23.50
2019-05-21T19:43:08.501Z,22.53
2019-05-21T19:45:41.131Z,22.80
2019-05-21T19:48:13.274Z,22.63
2019-05-21T19:50:45.588Z,21.03
2019-05-21T19:53:18.110Z,20.97
2019-05-21T19:55:50.769Z,20.10
2019-05-21T19:58:24.853Z,20.27
2019-05-21T20:00:56.964Z,20.43
2019-05-21T20:03:29.452Z,20.17
2019-05-21T20:06:03.309Z,18.97
2019-05-21T20:08:35.957Z,19.23
2019-05-21T20:11:08.852Z,19.53
2019-05-21T20:13:41.473Z,19.83
2019-05-21T20:16:14.802Z,19.83
2019-05-21T20:18:47.363Z,20.57
2019-05-21T20:21:20.952Z,19.80
2019-05-21T20:23:53.438Z,20.17
2019-05-21T20:26:27.201Z,20.23
2019-05-21T20:28:59.808Z,21.27
2019-05-21T20:31:31.894Z,21.43
2019-05-21T20:37:17.770Z,21.30
2019-05-21T20:39:52.634Z,22.20
2019-05-21T20:42:29.080Z,21.23
2019-05-21T20:45:01.448Z,20.37
2019-05-21T20:47:34.367Z,21.37
2019-05-21T20:50:11.904Z,22.00
2019-05-21T20:52:42.461Z,21.73
2019-05-21T20:55:16.418Z,22.47
2019-05-21T20:57:48.830Z,23.50
2019-05-21T21:00:29.996Z,22.27
2019-05-21T21:03:02.813Z,22.73
2019-05-21T21:05:35.653Z,23.53
2019-05-21T21:08:09.143Z,21.93
2019-05-21T21:10:42.587Z,23.17
2019-05-21T21:13:15.955Z,22.50
2019-05-21T21:15:48.667Z,23.80
2019-05-21T21:18:20.821Z,22.60
2019-05-21T21:20:52.951Z,23.33
2019-05-21T21:23:27.364Z,23.57
2019-05-21T21:25:59.885Z,22.53
2019-05-21T21:28:32.454Z,21.73
2019-05-21T21:31:05.401Z,20.73
2019-05-21T21:33:38.934Z,20.00
2019-05-21T21:36:12.825Z,20.37
2019-05-21T21:38:45.942Z,20.90
2019-05-21T21:41:19.462Z,20.57
2019-05-21T21:43:51.925Z,20.57
2019-05-21T21:46:23.989Z,22.10
2019-05-21T21:48:57.364Z,22.23
2019-05-21T21:51:30.493Z,22.20
2019-05-21T21:54:03.541Z,21.90
2019-05-21T21:56:36.806Z,23.43
2019-05-21T21:59:12.438Z,22.93
2019-05-21T22:04:59.691Z,22.10
2019-05-21T22:07:32.340Z,21.20
2019-05-21T22:10:05.124Z,22.17
2019-05-21T22:12:39.089Z,21.67
2019-05-21T22:15:13.123Z,21.13
2019-05-21T22:17:45.200Z,23.37
2019-05-21T22:20:17.505Z,22.80
2019-05-21T22:26:01.738Z,22.40
2019-05-21T22:28:34.743Z,23.23
2019-05-21T22:31:07.299Z,22.33
2019-05-21T22:33:40.274Z,21.93
2019-05-21T22:36:16.735Z,22.37
2019-05-21T22:41:59.850Z,21.50
2019-05-21T22:44:33.409Z,22.60
2019-05-21T22:47:08.188Z,24.07
2019-05-21T22:49:41.105Z,22.27
2019-05-21T22:52:13.610Z,22.33
2019-05-21T22:54:45.978Z,23.77
2019-05-21T22:57:18.081Z,23.93
2019-05-21T22:59:51.101Z,23.23
2019-05-21T23:02:28.499Z,23.67
2019-05-21T23:05:00.356Z,23.70
2019-05-21T23:07:33.288Z,23.53
2019-05-21T23:10:06.515Z,22.70
2019-05-21T23:12:39.798Z,19.97
2019-05-21T23:15:24.620Z,19.83
2019-05-21T23:17:50.313Z,20.67
2019-05-21T23:20:27.945Z,20.90
2019-05-21T23:23:00.847Z,19.03
2019-05-21T23:25:33.447Z,19.17
2019-05-21T23:28:07.077Z,21.27
2019-05-21T23:30:39.651Z,20.87
2019-05-21T23:33:13.214Z,20.50
2019-05-21T23:35:45.283Z,20.67
2019-05-21T23:38:20.404Z,19.77
2019-05-21T23:40:52.510Z,18.63
2019-05-21T23:43:27.000Z,16.77
2019-05-21T23:45:59.018Z,17.70
2019-05-21T23:48:33.042Z,19.13
2019-05-21T23:51:05.615Z,20.83
2019-05-21T23:53:38.325Z,20.27
2019-05-21T23:56:11.480Z,18.03
2019-05-21T23:58:43.840Z,18.53
